Daily Summary

Last 30 Days

Daily Data | Pacific/Honolulu
as of 8/4/20 1:57 AM HST
Date Daily Max Temp (°F) Max Temp Time Daily Min Temp (°F) Min Temp Time Daily Rain (In) Seasonal Rainfall (In) Wind Spd (mph) Daily Max Wind (mph) Max Wind Time Max Wind Dir (°) Daily Solar Rad (Cal/cm2) Daily ETo (in) Dew Pt (°F) Max RH (%) Min RH (%) Max Press (inHg) Time of Max Press Min Press (inHg) Time of Min Press Bat Volt Min Day (V)
8/3/20 84.7 1208 73.0 0710 0.03 13.31 8.4 26.8 1730 NNE | 15 658 0.247 67.2 84 49 30.10 2252 30.00 1635 12.8
8/2/20 84.5 1132 75.3 0339 0.02 13.28 7.5 24.7 1752 NE | 36 574 0.217 67.7 82 56 30.09 2254 29.98 1713 12.8
8/1/20 84.7 1508 76.6 0632 0.00 13.26 7.5 26.4 1846 NE | 43 632 0.247 65.3 69 52 30.08 1025 29.97 1716 12.8
7/31/20 84.0 1259 77.1 0552 0.00 13.26 8.4 28.3 1018 E | 83 575 0.234 65.8 71 54 30.08 2227 29.97 0339 12.8
7/30/20 83.0 1207 73.6 0003 0.15 13.26 8.1 26.9 1225 NNE | 32 552 0.212 66.8 88 53 30.05 2246 29.95 1622 12.8
7/29/20 83.4 1342 73.7 2353 0.11 13.11 8.2 27.1 1441 NE | 49 558 0.221 66.7 88 55 30.07 0839 29.95 1604 12.8
7/28/20 82.1 1140 73.3 0911 0.06 13.00 8.2 29.3 0906 E | 79 337 0.146 68.1 85 60 30.13 0909 30.00 1546 12.8
7/27/20 83.9 1341 78.0 0856 0.00 12.94 7.7 29.9 1437 NNE | 20 568 0.212 70.5 89 57 30.09 2235 29.95 0140 12.8
7/26/20 82.1 1544 75.6 0619 0.32 12.94 5.3 35.8 0948 NNE | 27 257 0.105 71.2 88 66 30.02 0015 29.84 1636 12.8
7/25/20 85.3 1406 78.6 0408 0.00 12.62 8.0 26.4 1332 NNE | 12 478 0.196 69.6 78 59 30.07 0910 29.96 1646 12.8
7/24/20 84.6 1345 76.0 0454 0.02 12.62 7.7 28.5 1456 NE | 40 637 0.237 68.9 86 55 30.09 0851 29.97 1533 12.8
7/23/20 85.1 1037 76.7 0217 0.00 12.60 7.3 26.1 1214 NE | 37 690 0.259 67.3 75 52 30.09 2222 30.00 1549 12.8
7/22/20 84.0 1551 72.7 0534 0.09 12.60 3.6 17.9 1655 NE | 45 375 0.134 69.6 90 58 30.08 2308 29.98 1655 12.8
7/21/20 85.5 1155 74.8 2238 0.00 12.51 6.4 24.6 1200 NNE | 31 662 0.238 68.0 86 56 30.08 0001 29.93 1558 12.8
7/20/20 84.7 1046 77.1 2257 0.00 12.51 8.8 29.4 1120 NNE | 17 533 0.229 66.3 75 46 30.10 2248 29.98 1706 12.6
7/19/20 84.7 1354 76.6 0731 0.00 12.51 8.0 30.7 1645 NE | 35 485 0.191 70.2 87 60 30.10 0842 29.98 1616 12.6
7/18/20 85.9 1356 76.4 0307 0.00 12.51 7.0 25.2 1646 NNE | 32 632 0.229 70.6 83 59 30.09 1018 29.98 1646 12.6
7/17/20 86.9 1437 75.4 0624 0.00 12.51 4.6 20.8 1616 NE | 34 587 0.208 71.0 86 58 30.08 2318 29.96 1617 12.7
7/16/20 86.0 1429 76.7 0644 0.00 12.51 5.8 20.3 1343 NE | 45 621 0.222 69.5 84 58 30.05 2240 29.96 1621 12.7
7/15/20 82.8 1538 74.2 0512 0.02 12.51 7.7 24.4 1530 NE | 38 558 0.209 67.9 86 57 30.04 2253 29.95 0328 12.7
7/14/20 85.5 1154 73.2 0459 0.09 12.49 6.2 28.3 1428 NE | 40 593 0.214 69.0 93 55 30.04 0925 29.93 1639 12.6
7/13/20 84.6 1241 72.8 0451 0.09 12.40 7.7 25.9 1508 NNE | 32 644 0.240 67.3 85 55 30.06 0012 29.94 1520 12.6
7/12/20 82.5 1007 75.7 1543 0.00 12.31 7.5 26.8 1313 NE | 40 469 0.193 66.2 75 55 30.11 0001 29.98 1711 12.6
7/11/20 84.2 1155 75.9 0521 0.00 12.31 8.3 28.5 1502 NE | 49 482 0.200 67.8 80 58 30.12 2322 30.03 1654 12.6
7/10/20 84.7 1152 76.0 0702 0.00 12.31 8.6 29.5 1259 NNE | 28 621 0.242 67.6 79 53 30.10 2241 30.00 1625 12.7
7/9/20 84.8 1114 74.4 0547 0.06 12.31 7.6 24.7 1219 NNE | 31 598 0.217 68.8 86 58 30.10 0004 29.99 1721 12.6
7/8/20 82.7 1113 75.5 0614 0.02 12.25 8.7 32.3 1302 NE | 36 556 0.217 67.0 78 58 30.12 2245 30.01 1620 12.6
7/7/20 84.0 1245 74.7 0040 0.03 12.23 7.5 25.9 1658 NE | 39 612 0.230 67.4 82 55 30.12 2250 30.00 1540 12.6
7/6/20 85.1 1238 75.7 2254 0.00 12.20 7.4 22.4 1445 NNE | 32 632 0.239 67.3 82 53 30.10 2243 30.00 1547 12.7
7/5/20 86.7 1427 75.5 0538 0.00 12.20 4.4 17.7 1637 NE | 36 503 0.184 69.4 81 54 30.09 2234 29.97 1701 12.7
Max 86.9 - 78.6 - 0.32 - 8.8 35.8 - - 690 0.259 71.2 93 66 30.13 - 30.03 - 12.8
Avg - - - - - - 7.3 - - - - - 68.2 - - - - - - -
Min 82.1 - 72.7 - 0.00 - 3.6 17.7 - - 257 0.105 65.3 69 46 30.02 - 29.84 - 12.6